Nearby METAR Reports

 

EGNM - Leeds And Bradford, United Kingdom
Distance from station: N 11mi, 18km
Updated: 05/06/2020 09:50
Partly cloudy
Partly cloudy
 Wind from WNW
Wind: WNW 17 mph , 28 km/h
Temperature: 10°C
Wind Chill: 7°C
Dew Point: 3°C
Humidity: 62%
Barometer: 994 hPa
Clouds: Partly cloudy
Visibility: 6 miles , 10 km
Cloud details: Few Clouds 488 m
Partly cloudy 853 m
2020/06/05 09:50 EGNM 050950Z 30015KT 9999 FEW016 SCT028 10/03 Q0994
EGXU - Linton-On-Ouse, United Kingdom
Distance from station: NNE 28mi, 45km
Updated: 05/06/2020 09:50
Few Clouds
Few Clouds
 Wind from NNW
Wind: NNW 14 mph , 22 km/h
Temperature: 13°C
Dew Point: 4°C
Humidity: 55%
Barometer: 994 hPa
Clouds: Few Clouds
Visibility: 6 miles , 10 km
Cloud details: Few Clouds 1097 m
2020/06/05 09:50 EGXU 050950Z AUTO 34012KT 9999 FEW036/// 13/04 Q0994
 
EGCN - Doncaster Sheffield, United Kingdom
Distance from station: ESE 30mi, 45km
Updated: 05/06/2020 10:20
Few Clouds
Few Clouds
 Wind from WNW
Wind: WNW 14 mph , 22 km/h
Temperature: 11°C
Dew Point: 5°C
Humidity: 67%
Barometer: 995 hPa
Clouds: Few Clouds
Visibility: 6 miles , 10 km
Cloud details: Few Clouds 945 m
2020/06/05 10:20 EGCN 051020Z 30012KT 260V320 9999 FEW031 11/05 Q0995
EGXZ - Topcliffe RAF, United Kingdom
Distance from station: NNE 36mi, 57km
Updated: 05/06/2020 09:50
Mostly cloudy
Mostly cloudy
 Wind from NNW
Wind: NNW 16 mph , 26 km/h
Temperature: 11°C
Dew Point: 2°C
Humidity: 54%
Barometer: 994 hPa
Clouds: Mostly cloudy
Visibility: 6 miles , 10 km
Cloud details: Few Clouds 1128 m
Mostly cloudy 1524 m
2020/06/05 09:50 EGXZ 050950Z AUTO 34014KT 9999 FEW037/// BKN050/// 11/02 Q0994
 
EGCC - Manchester Intl, United Kingdom
Distance from station: SW 36mi, 58km
Updated: 05/06/2020 10:20
Thunderstorm
Thunderstorm
 Wind from NW
Wind: NW 9 mph , 15 km/h
Temperature: 10°C
Wind Chill: 8°C
Dew Point: 7°C
Humidity: 82%
Barometer: 996 hPa
Clouds: Thunderstorm
Visibility: 6 miles , 10 km
Cloud details: Few Clouds 914 m
2020/06/05 10:20 EGCC 051020Z AUTO 31008KT 9999 FEW030/// //////CB 10/07 Q0996 RERA
EGXE - Leeming RAF, United Kingdom
Distance from station: N 40mi, 65km
Updated: 05/06/2020 10:20
Partly cloudy
Partly cloudy
 Wind from NNW
Wind: NNW 10 mph , 17 km/h
Temperature: 12°C
Dew Point: 4°C
Humidity: 58%
Barometer: 994 hPa
Clouds: Partly cloudy
Visibility: 6 miles , 10 km
Cloud details: Few Clouds 1097 m
Partly cloudy 2134 m
2020/06/05 10:20 EGXE 051020Z 33009KT 9999 FEW036 SCT070 12/04 Q0994 TEMPO 7000 SHRA RMK BLU TEMPO WHT